sensor_id;sensor_type;location;lat;lon;timestamp;P1;durP1;ratioP1;P2;durP2;ratioP2
12122;SDS011;6125;59.628;17.852;2022-10-04T00:01:24;2.17;;;1.40;;
12122;SDS011;6125;59.628;17.852;2022-10-04T00:04:00;4.60;;;1.97;;
12122;SDS011;6125;59.628;17.852;2022-10-04T00:06:31;1.67;;;1.50;;
12122;SDS011;6125;59.628;17.852;2022-10-04T00:09:14;6.10;;;1.97;;
12122;SDS011;6125;59.628;17.852;2022-10-04T00:11:47;3.33;;;1.70;;
12122;SDS011;6125;59.628;17.852;2022-10-04T00:14:18;3.20;;;1.53;;
12122;SDS011;6125;59.628;17.852;2022-10-04T00:16:50;2.60;;;1.20;;
12122;SDS011;6125;59.628;17.852;2022-10-04T00:19:36;3.43;;;1.60;;
12122;SDS011;6125;59.628;17.852;2022-10-04T00:22:13;2.00;;;1.47;;
12122;SDS011;6125;59.628;17.852;2022-10-04T00:31:09;3.80;;;1.40;;
12122;SDS011;6125;59.628;17.852;2022-10-04T00:33:51;2.70;;;1.23;;
12122;SDS011;6125;59.628;17.852;2022-10-04T00:36:30;2.70;;;1.60;;
12122;SDS011;6125;59.628;17.852;2022-10-04T00:45:19;1.90;;;1.40;;
12122;SDS011;6125;59.628;17.852;2022-10-04T00:48:00;2.00;;;1.30;;
12122;SDS011;6125;59.628;17.852;2022-10-04T00:50:48;6.50;;;1.50;;
12122;SDS011;6125;59.628;17.852;2022-10-04T00:53:26;2.80;;;1.47;;
12122;SDS011;6125;59.628;17.852;2022-10-04T00:56:05;3.13;;;1.57;;
12122;SDS011;6125;59.628;17.852;2022-10-04T00:58:37;2.70;;;1.30;;
12122;SDS011;6125;59.628;17.852;2022-10-04T01:01:18;5.23;;;1.37;;
12122;SDS011;6125;59.628;17.852;2022-10-04T01:03:48;5.70;;;1.50;;
12122;SDS011;6125;59.628;17.852;2022-10-04T01:06:18;2.73;;;1.50;;
12122;SDS011;6125;59.628;17.852;2022-10-04T01:08:47;3.73;;;1.23;;
12122;SDS011;6125;59.628;17.852;2022-10-04T01:11:19;3.83;;;1.73;;
12122;SDS011;6125;59.628;17.852;2022-10-04T01:13:53;2.57;;;1.50;;
12122;SDS011;6125;59.628;17.852;2022-10-04T01:16:26;2.93;;;1.30;;
12122;SDS011;6125;59.628;17.852;2022-10-04T01:18:54;5.43;;;1.40;;
12122;SDS011;6125;59.628;17.852;2022-10-04T01:21:57;2.67;;;1.37;;
12122;SDS011;6125;59.628;17.852;2022-10-04T01:24:33;6.37;;;1.27;;
12122;SDS011;6125;59.628;17.852;2022-10-04T01:27:06;2.50;;;1.40;;
12122;SDS011;6125;59.628;17.852;2022-10-04T01:30:06;3.27;;;1.50;;
12122;SDS011;6125;59.628;17.852;2022-10-04T01:32:36;4.90;;;1.50;;
12122;SDS011;6125;59.628;17.852;2022-10-04T01:35:07;1.80;;;1.27;;
12122;SDS011;6125;59.628;17.852;2022-10-04T01:37:37;3.77;;;1.70;;
12122;SDS011;6125;59.628;17.852;2022-10-04T01:40:07;4.90;;;1.53;;
12122;SDS011;6125;59.628;17.852;2022-10-04T01:42:37;3.17;;;1.30;;
12122;SDS011;6125;59.628;17.852;2022-10-04T01:45:16;3.37;;;1.57;;
12122;SDS011;6125;59.628;17.852;2022-10-04T01:47:51;3.13;;;1.37;;
12122;SDS011;6125;59.628;17.852;2022-10-04T01:50:22;2.20;;;1.10;;
12122;SDS011;6125;59.628;17.852;2022-10-04T01:52:54;4.20;;;1.37;;
12122;SDS011;6125;59.628;17.852;2022-10-04T01:55:28;2.13;;;1.17;;
12122;SDS011;6125;59.628;17.852;2022-10-04T01:58:00;1.20;;;1.10;;
12122;SDS011;6125;59.628;17.852;2022-10-04T02:00:36;1.67;;;1.23;;
12122;SDS011;6125;59.628;17.852;2022-10-04T02:03:09;4.93;;;1.43;;
12122;SDS011;6125;59.628;17.852;2022-10-04T02:05:43;3.07;;;1.40;;
12122;SDS011;6125;59.628;17.852;2022-10-04T02:08:16;2.50;;;1.40;;
12122;SDS011;6125;59.628;17.852;2022-10-04T02:10:52;3.63;;;1.30;;
12122;SDS011;6125;59.628;17.852;2022-10-04T02:13:20;5.20;;;1.30;;
12122;SDS011;6125;59.628;17.852;2022-10-04T02:15:51;1.40;;;1.20;;
12122;SDS011;6125;59.628;17.852;2022-10-04T02:18:21;2.23;;;1.30;;
12122;SDS011;6125;59.628;17.852;2022-10-04T02:20:52;2.77;;;1.20;;
12122;SDS011;6125;59.628;17.852;2022-10-04T02:23:24;3.47;;;1.43;;
12122;SDS011;6125;59.628;17.852;2022-10-04T02:25:58;2.00;;;1.20;;
12122;SDS011;6125;59.628;17.852;2022-10-04T02:28:31;2.97;;;1.10;;
12122;SDS011;6125;59.628;17.852;2022-10-04T02:30:59;7.13;;;1.20;;
12122;SDS011;6125;59.628;17.852;2022-10-04T02:33:45;2.73;;;1.30;;
12122;SDS011;6125;59.628;17.852;2022-10-04T02:36:14;2.37;;;1.30;;
12122;SDS011;6125;59.628;17.852;2022-10-04T02:38:43;2.63;;;1.90;;
12122;SDS011;6125;59.628;17.852;2022-10-04T02:41:25;4.80;;;1.57;;
12122;SDS011;6125;59.628;17.852;2022-10-04T02:43:57;3.43;;;1.20;;
12122;SDS011;6125;59.628;17.852;2022-10-04T02:46:29;7.90;;;1.20;;
12122;SDS011;6125;59.628;17.852;2022-10-04T02:49:04;2.30;;;1.30;;
12122;SDS011;6125;59.628;17.852;2022-10-04T02:51:38;1.67;;;1.13;;
12122;SDS011;6125;59.628;17.852;2022-10-04T02:54:13;2.67;;;1.10;;
12122;SDS011;6125;59.628;17.852;2022-10-04T02:56:50;4.77;;;1.20;;
12122;SDS011;6125;59.628;17.852;2022-10-04T02:59:18;4.87;;;1.30;;
12122;SDS011;6125;59.628;17.852;2022-10-04T03:01:47;4.07;;;1.40;;
12122;SDS011;6125;59.628;17.852;2022-10-04T03:04:17;3.07;;;1.40;;
12122;SDS011;6125;59.628;17.852;2022-10-04T03:06:53;1.43;;;1.10;;
12122;SDS011;6125;59.628;17.852;2022-10-04T03:09:22;3.73;;;1.20;;
12122;SDS011;6125;59.628;17.852;2022-10-04T03:11:55;5.67;;;1.30;;
12122;SDS011;6125;59.628;17.852;2022-10-04T03:14:23;6.90;;;1.33;;
12122;SDS011;6125;59.628;17.852;2022-10-04T03:16:53;4.17;;;1.30;;
12122;SDS011;6125;59.628;17.852;2022-10-04T03:19:24;4.80;;;1.37;;
12122;SDS011;6125;59.628;17.852;2022-10-04T03:21:56;3.17;;;1.13;;
12122;SDS011;6125;59.628;17.852;2022-10-04T03:24:27;3.20;;;1.50;;
12122;SDS011;6125;59.628;17.852;2022-10-04T03:26:58;1.33;;;0.97;;
12122;SDS011;6125;59.628;17.852;2022-10-04T03:29:28;2.27;;;1.30;;
12122;SDS011;6125;59.628;17.852;2022-10-04T03:32:06;3.33;;;1.10;;
12122;SDS011;6125;59.628;17.852;2022-10-04T03:34:38;4.00;;;1.33;;
12122;SDS011;6125;59.628;17.852;2022-10-04T03:37:09;3.97;;;1.10;;
12122;SDS011;6125;59.628;17.852;2022-10-04T03:39:40;3.77;;;1.23;;
12122;SDS011;6125;59.628;17.852;2022-10-04T03:42:14;4.07;;;1.47;;
12122;SDS011;6125;59.628;17.852;2022-10-04T03:44:44;2.50;;;1.40;;
12122;SDS011;6125;59.628;17.852;2022-10-04T03:47:13;3.37;;;1.17;;
12122;SDS011;6125;59.628;17.852;2022-10-04T03:49:44;5.47;;;1.47;;
12122;SDS011;6125;59.628;17.852;2022-10-04T03:52:21;3.97;;;1.23;;
12122;SDS011;6125;59.628;17.852;2022-10-04T03:54:58;3.23;;;1.63;;
12122;SDS011;6125;59.628;17.852;2022-10-04T03:57:30;4.27;;;1.10;;
12122;SDS011;6125;59.628;17.852;2022-10-04T03:59:58;3.53;;;1.00;;
12122;SDS011;6125;59.628;17.852;2022-10-04T04:02:28;6.20;;;1.93;;
12122;SDS011;6125;59.628;17.852;2022-10-04T04:05:04;3.43;;;0.93;;
12122;SDS011;6125;59.628;17.852;2022-10-04T04:07:35;4.00;;;1.13;;
12122;SDS011;6125;59.628;17.852;2022-10-04T04:10:10;6.40;;;1.90;;
12122;SDS011;6125;59.628;17.852;2022-10-04T04:12:54;3.70;;;1.40;;
12122;SDS011;6125;59.628;17.852;2022-10-04T04:15:27;6.10;;;1.70;;
12122;SDS011;6125;59.628;17.852;2022-10-04T04:17:56;2.77;;;1.20;;
12122;SDS011;6125;59.628;17.852;2022-10-04T04:20:28;5.17;;;1.13;;
12122;SDS011;6125;59.628;17.852;2022-10-04T04:23:02;4.10;;;1.00;;
12122;SDS011;6125;59.628;17.852;2022-10-04T04:25:36;3.80;;;1.40;;
12122;SDS011;6125;59.628;17.852;2022-10-04T04:28:13;1.50;;;0.97;;
12122;SDS011;6125;59.628;17.852;2022-10-04T04:30:50;3.23;;;1.00;;
12122;SDS011;6125;59.628;17.852;2022-10-04T04:33:24;12.67;;;1.90;;
12122;SDS011;6125;59.628;17.852;2022-10-04T04:35:54;3.80;;;1.00;;
12122;SDS011;6125;59.628;17.852;2022-10-04T04:38:28;4.70;;;1.23;;
12122;SDS011;6125;59.628;17.852;2022-10-04T04:40:56;1.93;;;1.10;;
12122;SDS011;6125;59.628;17.852;2022-10-04T04:43:41;3.17;;;1.10;;
12122;SDS011;6125;59.628;17.852;2022-10-04T04:46:11;3.50;;;1.47;;
12122;SDS011;6125;59.628;17.852;2022-10-04T04:48:38;2.37;;;0.93;;
12122;SDS011;6125;59.628;17.852;2022-10-04T04:51:12;3.17;;;1.20;;
12122;SDS011;6125;59.628;17.852;2022-10-04T04:53:45;5.73;;;1.37;;
12122;SDS011;6125;59.628;17.852;2022-10-04T04:56:15;3.03;;;0.90;;
12122;SDS011;6125;59.628;17.852;2022-10-04T04:58:56;1.17;;;1.07;;
12122;SDS011;6125;59.628;17.852;2022-10-04T05:01:27;3.50;;;1.50;;
12122;SDS011;6125;59.628;17.852;2022-10-04T05:04:00;5.30;;;1.37;;
12122;SDS011;6125;59.628;17.852;2022-10-04T05:06:32;1.80;;;1.20;;
12122;SDS011;6125;59.628;17.852;2022-10-04T05:09:03;4.97;;;1.10;;
12122;SDS011;6125;59.628;17.852;2022-10-04T05:11:32;1.40;;;0.80;;
12122;SDS011;6125;59.628;17.852;2022-10-04T05:14:06;2.60;;;1.30;;
12122;SDS011;6125;59.628;17.852;2022-10-04T05:16:37;5.50;;;1.37;;
12122;SDS011;6125;59.628;17.852;2022-10-04T05:19:13;6.10;;;1.20;;
12122;SDS011;6125;59.628;17.852;2022-10-04T05:21:42;6.10;;;1.40;;
12122;SDS011;6125;59.628;17.852;2022-10-04T05:24:12;9.30;;;1.63;;
12122;SDS011;6125;59.628;17.852;2022-10-04T05:26:48;3.63;;;1.33;;
12122;SDS011;6125;59.628;17.852;2022-10-04T05:29:19;3.17;;;1.30;;
12122;SDS011;6125;59.628;17.852;2022-10-04T05:31:53;3.60;;;1.80;;
12122;SDS011;6125;59.628;17.852;2022-10-04T05:34:29;1.70;;;1.17;;
12122;SDS011;6125;59.628;17.852;2022-10-04T05:37:05;4.03;;;1.07;;
12122;SDS011;6125;59.628;17.852;2022-10-04T05:39:45;2.83;;;1.10;;
12122;SDS011;6125;59.628;17.852;2022-10-04T05:42:22;4.50;;;1.13;;
12122;SDS011;6125;59.628;17.852;2022-10-04T05:44:58;7.27;;;1.30;;
12122;SDS011;6125;59.628;17.852;2022-10-04T05:47:27;2.30;;;1.17;;
12122;SDS011;6125;59.628;17.852;2022-10-04T05:49:56;2.20;;;1.10;;
12122;SDS011;6125;59.628;17.852;2022-10-04T05:52:26;6.80;;;1.40;;
12122;SDS011;6125;59.628;17.852;2022-10-04T05:55:12;3.33;;;1.10;;
12122;SDS011;6125;59.628;17.852;2022-10-04T05:57:47;5.93;;;1.13;;
12122;SDS011;6125;59.628;17.852;2022-10-04T06:00:54;5.23;;;1.20;;
12122;SDS011;6125;59.628;17.852;2022-10-04T06:03:47;1.37;;;1.23;;
12122;SDS011;6125;59.628;17.852;2022-10-04T06:06:36;9.27;;;2.00;;
12122;SDS011;6125;59.628;17.852;2022-10-04T06:09:12;2.43;;;0.97;;
12122;SDS011;6125;59.628;17.852;2022-10-04T06:11:52;1.80;;;0.90;;
12122;SDS011;6125;59.628;17.852;2022-10-04T06:17:42;3.37;;;1.37;;
12122;SDS011;6125;59.628;17.852;2022-10-04T06:20:19;8.43;;;1.53;;
12122;SDS011;6125;59.628;17.852;2022-10-04T06:23:04;3.73;;;1.20;;
12122;SDS011;6125;59.628;17.852;2022-10-04T06:25:39;2.77;;;1.27;;
12122;SDS011;6125;59.628;17.852;2022-10-04T06:28:18;2.80;;;1.17;;
12122;SDS011;6125;59.628;17.852;2022-10-04T06:30:59;3.97;;;1.10;;
12122;SDS011;6125;59.628;17.852;2022-10-04T06:33:48;2.13;;;1.10;;
12122;SDS011;6125;59.628;17.852;2022-10-04T06:36:37;2.63;;;0.93;;
12122;SDS011;6125;59.628;17.852;2022-10-04T06:39:16;2.30;;;1.47;;
12122;SDS011;6125;59.628;17.852;2022-10-04T06:42:12;2.67;;;1.20;;
12122;SDS011;6125;59.628;17.852;2022-10-04T06:45:02;4.27;;;1.03;;
12122;SDS011;6125;59.628;17.852;2022-10-04T06:50:45;2.17;;;0.93;;
12122;SDS011;6125;59.628;17.852;2022-10-04T06:53:30;3.83;;;1.13;;
12122;SDS011;6125;59.628;17.852;2022-10-04T06:59:14;5.50;;;1.13;;
12122;SDS011;6125;59.628;17.852;2022-10-04T07:01:56;5.27;;;1.13;;
12122;SDS011;6125;59.628;17.852;2022-10-04T07:04:30;4.00;;;0.90;;
12122;SDS011;6125;59.628;17.852;2022-10-04T07:07:14;2.70;;;1.20;;
12122;SDS011;6125;59.628;17.852;2022-10-04T07:09:59;1.27;;;1.00;;
12122;SDS011;6125;59.628;17.852;2022-10-04T07:12:46;3.60;;;1.20;;
12122;SDS011;6125;59.628;17.852;2022-10-04T07:15:20;3.37;;;1.10;;
12122;SDS011;6125;59.628;17.852;2022-10-04T07:17:51;1.80;;;1.20;;
12122;SDS011;6125;59.628;17.852;2022-10-04T07:20:21;2.87;;;1.13;;
12122;SDS011;6125;59.628;17.852;2022-10-04T07:22:56;2.83;;;1.03;;
12122;SDS011;6125;59.628;17.852;2022-10-04T07:25:30;5.00;;;1.20;;
12122;SDS011;6125;59.628;17.852;2022-10-04T07:28:02;3.07;;;1.33;;
12122;SDS011;6125;59.628;17.852;2022-10-04T07:30:54;3.03;;;1.20;;
12122;SDS011;6125;59.628;17.852;2022-10-04T07:33:26;2.40;;;1.17;;
12122;SDS011;6125;59.628;17.852;2022-10-04T07:36:02;3.17;;;1.43;;
12122;SDS011;6125;59.628;17.852;2022-10-04T07:38:36;5.47;;;0.93;;
12122;SDS011;6125;59.628;17.852;2022-10-04T07:41:16;3.97;;;1.67;;
12122;SDS011;6125;59.628;17.852;2022-10-04T07:43:48;1.90;;;0.80;;
12122;SDS011;6125;59.628;17.852;2022-10-04T07:46:27;4.93;;;1.13;;
12122;SDS011;6125;59.628;17.852;2022-10-04T07:49:09;3.57;;;1.30;;
12122;SDS011;6125;59.628;17.852;2022-10-04T07:51:41;5.97;;;1.60;;
12122;SDS011;6125;59.628;17.852;2022-10-04T07:54:26;3.43;;;1.50;;
12122;SDS011;6125;59.628;17.852;2022-10-04T07:57:03;7.17;;;1.97;;
12122;SDS011;6125;59.628;17.852;2022-10-04T07:59:38;3.37;;;1.53;;
12122;SDS011;6125;59.628;17.852;2022-10-04T08:02:13;2.27;;;1.43;;
12122;SDS011;6125;59.628;17.852;2022-10-04T08:04:49;3.93;;;1.13;;
12122;SDS011;6125;59.628;17.852;2022-10-04T08:07:25;4.33;;;1.30;;
12122;SDS011;6125;59.628;17.852;2022-10-04T08:10:13;8.73;;;1.50;;
12122;SDS011;6125;59.628;17.852;2022-10-04T08:12:48;2.87;;;1.27;;
12122;SDS011;6125;59.628;17.852;2022-10-04T08:15:28;3.17;;;0.93;;
12122;SDS011;6125;59.628;17.852;2022-10-04T08:18:04;6.07;;;1.37;;
12122;SDS011;6125;59.628;17.852;2022-10-04T08:20:45;1.73;;;1.00;;
12122;SDS011;6125;59.628;17.852;2022-10-04T08:23:26;4.47;;;1.33;;
12122;SDS011;6125;59.628;17.852;2022-10-04T08:26:09;2.13;;;1.10;;
12122;SDS011;6125;59.628;17.852;2022-10-04T08:28:47;5.20;;;1.40;;
12122;SDS011;6125;59.628;17.852;2022-10-04T08:31:55;5.07;;;1.77;;
12122;SDS011;6125;59.628;17.852;2022-10-04T08:34:38;3.13;;;1.03;;
12122;SDS011;6125;59.628;17.852;2022-10-04T08:37:24;2.57;;;1.33;;
12122;SDS011;6125;59.628;17.852;2022-10-04T08:40:09;3.40;;;1.07;;
12122;SDS011;6125;59.628;17.852;2022-10-04T08:43:11;4.93;;;1.40;;
12122;SDS011;6125;59.628;17.852;2022-10-04T08:58:03;5.20;;;1.20;;
12122;SDS011;6125;59.628;17.852;2022-10-04T09:00:56;5.87;;;1.67;;
12122;SDS011;6125;59.628;17.852;2022-10-04T09:03:58;7.50;;;1.90;;
12122;SDS011;6125;59.628;17.852;2022-10-04T09:06:58;4.67;;;1.50;;
12122;SDS011;6125;59.628;17.852;2022-10-04T09:09:55;3.40;;;1.10;;
12122;SDS011;6125;59.628;17.852;2022-10-04T09:13:00;8.17;;;1.70;;
12122;SDS011;6125;59.628;17.852;2022-10-04T09:15:48;6.27;;;1.60;;
12122;SDS011;6125;59.628;17.852;2022-10-04T09:21:35;4.47;;;1.27;;
12122;SDS011;6125;59.628;17.852;2022-10-04T09:24:19;3.40;;;1.30;;
12122;SDS011;6125;59.628;17.852;2022-10-04T09:27:11;6.03;;;1.70;;
12122;SDS011;6125;59.628;17.852;2022-10-04T09:29:58;7.23;;;1.60;;
12122;SDS011;6125;59.628;17.852;2022-10-04T09:32:36;4.30;;;1.67;;
12122;SDS011;6125;59.628;17.852;2022-10-04T09:35:40;4.83;;;1.53;;
12122;SDS011;6125;59.628;17.852;2022-10-04T09:47:43;5.03;;;1.27;;
12122;SDS011;6125;59.628;17.852;2022-10-04T09:53:31;3.40;;;1.43;;
12122;SDS011;6125;59.628;17.852;2022-10-04T09:56:10;4.73;;;1.37;;
12122;SDS011;6125;59.628;17.852;2022-10-04T09:58:56;6.07;;;1.67;;
12122;SDS011;6125;59.628;17.852;2022-10-04T10:01:57;3.77;;;1.20;;
12122;SDS011;6125;59.628;17.852;2022-10-04T10:04:57;4.87;;;1.37;;
12122;SDS011;6125;59.628;17.852;2022-10-04T10:07:43;6.87;;;0.97;;
12122;SDS011;6125;59.628;17.852;2022-10-04T10:10:18;7.23;;;1.30;;
12122;SDS011;6125;59.628;17.852;2022-10-04T10:13:21;2.00;;;1.00;;
12122;SDS011;6125;59.628;17.852;2022-10-04T10:16:05;1.33;;;1.17;;
12122;SDS011;6125;59.628;17.852;2022-10-04T10:18:58;3.07;;;1.10;;
12122;SDS011;6125;59.628;17.852;2022-10-04T10:24:46;3.47;;;1.10;;
12122;SDS011;6125;59.628;17.852;2022-10-04T10:27:44;5.53;;;1.03;;
12122;SDS011;6125;59.628;17.852;2022-10-04T10:30:22;2.40;;;1.10;;
12122;SDS011;6125;59.628;17.852;2022-10-04T10:33:07;3.00;;;1.40;;
12122;SDS011;6125;59.628;17.852;2022-10-04T10:35:53;2.50;;;1.43;;
12122;SDS011;6125;59.628;17.852;2022-10-04T10:38:45;5.30;;;1.50;;
12122;SDS011;6125;59.628;17.852;2022-10-04T10:41:25;4.73;;;1.43;;
12122;SDS011;6125;59.628;17.852;2022-10-04T10:44:16;5.13;;;1.20;;
12122;SDS011;6125;59.628;17.852;2022-10-04T10:46:57;3.83;;;1.40;;
12122;SDS011;6125;59.628;17.852;2022-10-04T10:49:40;2.37;;;1.23;;
12122;SDS011;6125;59.628;17.852;2022-10-04T10:52:36;6.23;;;1.33;;
12122;SDS011;6125;59.628;17.852;2022-10-04T11:08:25;5.70;;;1.10;;
12122;SDS011;6125;59.628;17.852;2022-10-04T11:14:45;3.83;;;1.43;;
12122;SDS011;6125;59.628;17.852;2022-10-04T11:17:44;4.20;;;1.10;;
12122;SDS011;6125;59.628;17.852;2022-10-04T11:20:43;4.60;;;1.70;;
12122;SDS011;6125;59.628;17.852;2022-10-04T11:23:45;6.27;;;1.40;;
12122;SDS011;6125;59.628;17.852;2022-10-04T11:29:53;4.07;;;0.90;;
12122;SDS011;6125;59.628;17.852;2022-10-04T11:35:37;2.17;;;1.10;;
12122;SDS011;6125;59.628;17.852;2022-10-04T11:38:21;5.10;;;1.40;;
12122;SDS011;6125;59.628;17.852;2022-10-04T11:41:12;5.93;;;1.03;;
12122;SDS011;6125;59.628;17.852;2022-10-04T11:43:54;2.10;;;0.87;;
12122;SDS011;6125;59.628;17.852;2022-10-04T11:46:50;4.93;;;1.30;;
12122;SDS011;6125;59.628;17.852;2022-10-04T11:49:25;3.93;;;1.00;;
12122;SDS011;6125;59.628;17.852;2022-10-04T11:52:17;1.80;;;0.83;;
12122;SDS011;6125;59.628;17.852;2022-10-04T11:58:01;4.00;;;1.20;;
12122;SDS011;6125;59.628;17.852;2022-10-04T12:00:47;4.07;;;1.00;;
12122;SDS011;6125;59.628;17.852;2022-10-04T12:03:44;2.13;;;1.07;;
12122;SDS011;6125;59.628;17.852;2022-10-04T12:06:37;3.70;;;1.50;;
12122;SDS011;6125;59.628;17.852;2022-10-04T12:09:18;4.00;;;1.20;;
12122;SDS011;6125;59.628;17.852;2022-10-04T12:11:56;3.33;;;1.00;;
12122;SDS011;6125;59.628;17.852;2022-10-04T12:21:01;2.87;;;1.60;;
12122;SDS011;6125;59.628;17.852;2022-10-04T12:26:59;3.20;;;1.00;;
12122;SDS011;6125;59.628;17.852;2022-10-04T12:30:10;1.63;;;0.73;;
12122;SDS011;6125;59.628;17.852;2022-10-04T12:32:49;4.10;;;1.43;;
12122;SDS011;6125;59.628;17.852;2022-10-04T12:35:28;4.57;;;1.50;;
12122;SDS011;6125;59.628;17.852;2022-10-04T12:41:03;1.90;;;1.10;;
12122;SDS011;6125;59.628;17.852;2022-10-04T12:43:39;2.53;;;1.00;;
12122;SDS011;6125;59.628;17.852;2022-10-04T12:46:18;2.13;;;0.80;;
12122;SDS011;6125;59.628;17.852;2022-10-04T12:49:07;4.20;;;1.30;;
12122;SDS011;6125;59.628;17.852;2022-10-04T12:51:53;7.60;;;1.40;;
12122;SDS011;6125;59.628;17.852;2022-10-04T12:54:36;1.97;;;1.10;;
12122;SDS011;6125;59.628;17.852;2022-10-04T12:59:57;2.37;;;1.20;;
12122;SDS011;6125;59.628;17.852;2022-10-04T13:02:43;4.07;;;1.20;;
12122;SDS011;6125;59.628;17.852;2022-10-04T13:05:23;3.03;;;1.20;;
12122;SDS011;6125;59.628;17.852;2022-10-04T13:08:04;1.70;;;1.33;;
12122;SDS011;6125;59.628;17.852;2022-10-04T13:10:53;2.07;;;1.17;;
12122;SDS011;6125;59.628;17.852;2022-10-04T13:16:50;3.60;;;1.20;;
12122;SDS011;6125;59.628;17.852;2022-10-04T13:19:23;3.00;;;1.13;;
12122;SDS011;6125;59.628;17.852;2022-10-04T13:22:21;3.13;;;1.03;;
12122;SDS011;6125;59.628;17.852;2022-10-04T13:25:13;1.37;;;1.10;;
12122;SDS011;6125;59.628;17.852;2022-10-04T13:27:57;3.50;;;1.00;;
12122;SDS011;6125;59.628;17.852;2022-10-04T13:30:31;1.80;;;0.90;;
12122;SDS011;6125;59.628;17.852;2022-10-04T13:33:10;3.87;;;0.80;;
12122;SDS011;6125;59.628;17.852;2022-10-04T13:35:52;1.40;;;0.97;;
12122;SDS011;6125;59.628;17.852;2022-10-04T13:38:32;2.63;;;0.83;;
12122;SDS011;6125;59.628;17.852;2022-10-04T13:41:17;3.10;;;1.20;;
12122;SDS011;6125;59.628;17.852;2022-10-04T13:47:21;2.07;;;0.80;;
12122;SDS011;6125;59.628;17.852;2022-10-04T13:50:06;3.13;;;1.00;;
12122;SDS011;6125;59.628;17.852;2022-10-04T13:52:53;1.97;;;1.00;;
12122;SDS011;6125;59.628;17.852;2022-10-04T13:55:46;3.67;;;1.13;;
12122;SDS011;6125;59.628;17.852;2022-10-04T13:58:40;3.90;;;1.00;;
12122;SDS011;6125;59.628;17.852;2022-10-04T14:01:20;3.63;;;1.00;;
12122;SDS011;6125;59.628;17.852;2022-10-04T14:04:07;5.73;;;1.37;;
12122;SDS011;6125;59.628;17.852;2022-10-04T14:06:58;5.30;;;1.30;;
12122;SDS011;6125;59.628;17.852;2022-10-04T14:10:00;3.20;;;1.20;;
12122;SDS011;6125;59.628;17.852;2022-10-04T14:12:57;3.90;;;1.00;;
12122;SDS011;6125;59.628;17.852;2022-10-04T14:18:47;2.63;;;0.90;;
12122;SDS011;6125;59.628;17.852;2022-10-04T14:24:50;3.20;;;1.00;;
12122;SDS011;6125;59.628;17.852;2022-10-04T14:28:13;3.90;;;1.20;;
12122;SDS011;6125;59.628;17.852;2022-10-04T14:31:29;5.17;;;1.50;;
12122;SDS011;6125;59.628;17.852;2022-10-04T14:34:31;2.60;;;1.10;;
12122;SDS011;6125;59.628;17.852;2022-10-04T14:40:44;2.73;;;1.00;;
12122;SDS011;6125;59.628;17.852;2022-10-04T14:46:27;5.50;;;1.20;;
12122;SDS011;6125;59.628;17.852;2022-10-04T14:49:09;2.47;;;1.20;;
12122;SDS011;6125;59.628;17.852;2022-10-04T14:52:00;4.10;;;1.17;;
12122;SDS011;6125;59.628;17.852;2022-10-04T14:54:41;5.53;;;1.20;;
12122;SDS011;6125;59.628;17.852;2022-10-04T14:57:21;3.27;;;1.10;;
12122;SDS011;6125;59.628;17.852;2022-10-04T15:00:09;3.50;;;1.30;;
12122;SDS011;6125;59.628;17.852;2022-10-04T15:02:53;1.93;;;1.20;;
12122;SDS011;6125;59.628;17.852;2022-10-04T15:08:43;3.53;;;1.30;;
12122;SDS011;6125;59.628;17.852;2022-10-04T15:11:35;3.47;;;1.30;;
12122;SDS011;6125;59.628;17.852;2022-10-04T15:17:07;4.17;;;1.43;;
12122;SDS011;6125;59.628;17.852;2022-10-04T15:19:47;3.57;;;1.57;;
12122;SDS011;6125;59.628;17.852;2022-10-04T15:22:36;3.33;;;1.50;;
12122;SDS011;6125;59.628;17.852;2022-10-04T15:28:14;4.20;;;1.70;;
12122;SDS011;6125;59.628;17.852;2022-10-04T15:31:10;7.67;;;2.20;;
12122;SDS011;6125;59.628;17.852;2022-10-04T15:33:45;3.60;;;1.60;;
12122;SDS011;6125;59.628;17.852;2022-10-04T15:36:39;5.53;;;1.30;;
12122;SDS011;6125;59.628;17.852;2022-10-04T15:39:28;2.67;;;1.30;;
12122;SDS011;6125;59.628;17.852;2022-10-04T15:42:12;3.77;;;1.87;;
12122;SDS011;6125;59.628;17.852;2022-10-04T15:44:45;5.43;;;2.00;;
12122;SDS011;6125;59.628;17.852;2022-10-04T15:47:21;6.60;;;1.83;;
12122;SDS011;6125;59.628;17.852;2022-10-04T15:49:56;10.33;;;1.93;;
12122;SDS011;6125;59.628;17.852;2022-10-04T15:55:47;6.27;;;1.40;;
12122;SDS011;6125;59.628;17.852;2022-10-04T15:58:50;3.50;;;1.43;;
12122;SDS011;6125;59.628;17.852;2022-10-04T16:01:38;3.57;;;1.53;;
12122;SDS011;6125;59.628;17.852;2022-10-04T16:07:27;6.23;;;1.80;;
12122;SDS011;6125;59.628;17.852;2022-10-04T16:10:11;8.23;;;2.10;;
12122;SDS011;6125;59.628;17.852;2022-10-04T16:22:26;8.40;;;2.00;;
12122;SDS011;6125;59.628;17.852;2022-10-04T16:24:56;5.77;;;2.07;;
12122;SDS011;6125;59.628;17.852;2022-10-04T16:27:38;10.90;;;2.40;;
12122;SDS011;6125;59.628;17.852;2022-10-04T16:30:24;3.70;;;2.03;;
12122;SDS011;6125;59.628;17.852;2022-10-04T16:33:01;3.90;;;1.80;;
12122;SDS011;6125;59.628;17.852;2022-10-04T16:36:08;10.00;;;2.23;;
12122;SDS011;6125;59.628;17.852;2022-10-04T16:38:45;9.87;;;3.57;;
12122;SDS011;6125;59.628;17.852;2022-10-04T16:41:34;15.37;;;4.27;;
12122;SDS011;6125;59.628;17.852;2022-10-04T16:44:22;4.60;;;1.77;;
12122;SDS011;6125;59.628;17.852;2022-10-04T16:46:59;3.03;;;1.87;;
12122;SDS011;6125;59.628;17.852;2022-10-04T16:49:38;7.07;;;2.40;;
12122;SDS011;6125;59.628;17.852;2022-10-04T16:52:33;3.70;;;1.80;;
12122;SDS011;6125;59.628;17.852;2022-10-04T17:07:33;3.90;;;2.27;;
12122;SDS011;6125;59.628;17.852;2022-10-04T17:10:18;4.77;;;2.50;;
12122;SDS011;6125;59.628;17.852;2022-10-04T17:13:05;7.03;;;2.20;;
12122;SDS011;6125;59.628;17.852;2022-10-04T17:15:47;6.83;;;2.60;;
12122;SDS011;6125;59.628;17.852;2022-10-04T17:18:27;5.63;;;2.30;;
12122;SDS011;6125;59.628;17.852;2022-10-04T17:21:02;4.33;;;2.10;;
12122;SDS011;6125;59.628;17.852;2022-10-04T17:23:51;6.07;;;2.50;;
12122;SDS011;6125;59.628;17.852;2022-10-04T17:26:36;6.40;;;3.00;;
12122;SDS011;6125;59.628;17.852;2022-10-04T17:29:21;5.43;;;3.70;;
12122;SDS011;6125;59.628;17.852;2022-10-04T17:32:02;4.93;;;2.13;;
12122;SDS011;6125;59.628;17.852;2022-10-04T17:34:43;5.47;;;2.53;;
12122;SDS011;6125;59.628;17.852;2022-10-04T17:37:20;4.27;;;1.83;;
12122;SDS011;6125;59.628;17.852;2022-10-04T17:40:15;6.30;;;1.93;;
12122;SDS011;6125;59.628;17.852;2022-10-04T17:42:54;2.83;;;1.47;;
12122;SDS011;6125;59.628;17.852;2022-10-04T17:45:42;5.70;;;2.10;;
12122;SDS011;6125;59.628;17.852;2022-10-04T17:48:18;5.47;;;1.97;;
12122;SDS011;6125;59.628;17.852;2022-10-04T17:51:09;6.30;;;1.83;;
12122;SDS011;6125;59.628;17.852;2022-10-04T17:54:01;5.33;;;2.27;;
12122;SDS011;6125;59.628;17.852;2022-10-04T17:56:57;7.07;;;2.80;;
12122;SDS011;6125;59.628;17.852;2022-10-04T17:59:37;5.33;;;2.47;;
12122;SDS011;6125;59.628;17.852;2022-10-04T18:02:09;6.47;;;2.83;;
12122;SDS011;6125;59.628;17.852;2022-10-04T18:04:44;5.47;;;2.10;;
12122;SDS011;6125;59.628;17.852;2022-10-04T18:07:16;4.13;;;2.27;;
12122;SDS011;6125;59.628;17.852;2022-10-04T18:09:46;3.27;;;2.13;;
12122;SDS011;6125;59.628;17.852;2022-10-04T18:12:23;6.63;;;2.83;;
12122;SDS011;6125;59.628;17.852;2022-10-04T18:14:59;6.57;;;2.47;;
12122;SDS011;6125;59.628;17.852;2022-10-04T18:17:34;7.93;;;2.20;;
12122;SDS011;6125;59.628;17.852;2022-10-04T18:20:14;5.17;;;2.23;;
12122;SDS011;6125;59.628;17.852;2022-10-04T18:22:55;4.73;;;2.37;;
12122;SDS011;6125;59.628;17.852;2022-10-04T18:25:26;6.47;;;2.47;;
12122;SDS011;6125;59.628;17.852;2022-10-04T18:28:00;6.97;;;2.73;;
12122;SDS011;6125;59.628;17.852;2022-10-04T18:30:30;9.13;;;2.13;;
12122;SDS011;6125;59.628;17.852;2022-10-04T18:32:58;4.40;;;2.13;;
12122;SDS011;6125;59.628;17.852;2022-10-04T18:35:40;4.23;;;2.10;;
12122;SDS011;6125;59.628;17.852;2022-10-04T18:38:19;8.10;;;2.00;;